createdAt,value
2018-07-20T00:00:32.737Z,18.8
2018-07-20T00:01:34.392Z,18.8
2018-07-20T00:02:36.113Z,18.8
2018-07-20T00:03:37.776Z,18.8
2018-07-20T00:04:39.456Z,18.8
2018-07-20T00:05:41.203Z,18.8
2018-07-20T00:06:42.902Z,18.8
2018-07-20T00:07:44.549Z,18.8
2018-07-20T00:08:46.207Z,18.7
2018-07-20T00:09:47.860Z,18.7
2018-07-20T00:10:49.519Z,18.8
2018-07-20T00:11:51.230Z,18.8
2018-07-20T00:12:52.904Z,18.7
2018-07-20T00:13:54.594Z,18.7
2018-07-20T00:14:56.327Z,18.8
2018-07-20T00:15:57.980Z,18.8
2018-07-20T00:16:59.651Z,18.8
2018-07-20T00:18:01.398Z,18.8
2018-07-20T00:19:03.085Z,18.8
2018-07-20T00:20:04.790Z,18.8
2018-07-20T00:21:06.438Z,18.8
2018-07-20T00:22:08.160Z,18.8
2018-07-20T00:23:09.872Z,18.8
2018-07-20T00:24:11.626Z,18.8
2018-07-20T00:25:13.301Z,18.8
2018-07-20T00:26:14.976Z,18.7
2018-07-20T00:27:16.738Z,18.7
2018-07-20T00:28:18.431Z,18.7
2018-07-20T00:29:20.164Z,18.7
2018-07-20T00:30:21.945Z,18.7
2018-07-20T00:31:23.644Z,18.7
2018-07-20T00:32:25.309Z,18.8
2018-07-20T00:33:27.027Z,18.8
2018-07-20T00:34:28.659Z,18.8
2018-07-20T00:35:30.232Z,18.8
2018-07-20T00:36:32.004Z,18.8
2018-07-20T00:37:33.742Z,18.9
2018-07-20T00:38:35.474Z,19.0
2018-07-20T00:39:37.255Z,18.9
2018-07-20T00:40:38.953Z,19.0
2018-07-20T00:41:40.614Z,19.0
2018-07-20T00:42:42.347Z,19.0
2018-07-20T00:43:44.024Z,18.9
2018-07-20T00:44:45.734Z,18.9
2018-07-20T00:45:47.393Z,19.0
2018-07-20T00:46:49.127Z,18.9
2018-07-20T00:47:50.849Z,18.9
2018-07-20T00:48:52.638Z,18.8
2018-07-20T00:49:54.939Z,18.9
2018-07-20T00:50:56.649Z,18.8
2018-07-20T00:51:58.302Z,18.8
2018-07-20T00:53:00.023Z,18.7
2018-07-20T00:54:01.713Z,18.7
2018-07-20T00:55:03.334Z,18.7
2018-07-20T00:56:05.053Z,18.7
2018-07-20T00:57:06.724Z,18.5
2018-07-20T00:58:08.422Z,18.5
2018-07-20T00:59:10.157Z,18.5
2018-07-20T01:00:11.858Z,18.4
2018-07-20T01:01:13.538Z,18.4
2018-07-20T01:02:15.192Z,18.4
2018-07-20T01:03:16.834Z,18.4
2018-07-20T01:04:18.542Z,18.4
2018-07-20T01:05:20.165Z,18.4
2018-07-20T01:06:21.864Z,18.4
2018-07-20T01:07:23.562Z,18.3
2018-07-20T01:08:25.298Z,18.2
2018-07-20T01:09:26.917Z,18.3
2018-07-20T01:10:28.532Z,18.3
2018-07-20T01:11:30.334Z,18.2
2018-07-20T01:12:32.044Z,18.2
2018-07-20T01:13:33.724Z,18.1
2018-07-20T01:14:35.509Z,18.1
2018-07-20T01:15:37.238Z,18.1
2018-07-20T01:16:38.856Z,18.0
2018-07-20T01:17:40.587Z,18.1
2018-07-20T01:18:42.340Z,17.9
2018-07-20T01:19:44.085Z,17.8
2018-07-20T01:20:45.828Z,17.9
2018-07-20T01:21:47.499Z,17.8
2018-07-20T01:22:50.097Z,17.7
2018-07-20T01:23:51.795Z,17.7
2018-07-20T01:24:53.489Z,17.7
2018-07-20T01:25:55.127Z,17.7
2018-07-20T01:26:56.767Z,17.6
2018-07-20T01:27:58.490Z,17.6
2018-07-20T01:29:00.187Z,17.6
2018-07-20T01:30:01.874Z,17.6
2018-07-20T01:31:03.629Z,17.7
2018-07-20T01:32:05.326Z,17.6
2018-07-20T01:33:07.066Z,17.7
2018-07-20T01:34:08.774Z,17.7
2018-07-20T01:35:10.406Z,17.7
2018-07-20T01:36:12.116Z,17.7
2018-07-20T01:37:13.816Z,17.7
2018-07-20T01:38:15.515Z,17.8
2018-07-20T01:39:17.196Z,17.8
2018-07-20T01:40:18.929Z,17.8
2018-07-20T01:41:20.682Z,17.8
2018-07-20T01:42:22.379Z,17.7
2018-07-20T01:43:24.049Z,17.8
2018-07-20T01:44:25.679Z,17.7
2018-07-20T01:45:27.350Z,17.6
2018-07-20T01:46:29.028Z,17.6
2018-07-20T01:47:30.725Z,17.6
2018-07-20T01:48:32.366Z,17.6
2018-07-20T01:49:34.120Z,17.6
2018-07-20T01:50:35.865Z,17.6
2018-07-20T01:51:37.574Z,17.6
2018-07-20T01:52:39.296Z,17.6
2018-07-20T01:53:40.937Z,17.5
2018-07-20T01:54:42.645Z,17.5
2018-07-20T01:55:44.412Z,17.5
2018-07-20T01:56:45.986Z,17.5
2018-07-20T01:57:47.612Z,17.4
2018-07-20T01:58:49.250Z,17.4
2018-07-20T01:59:51.006Z,17.4
2018-07-20T02:00:52.660Z,17.3
2018-07-20T02:01:54.319Z,17.3
2018-07-20T02:02:56.089Z,17.3
2018-07-20T02:03:57.696Z,17.3
2018-07-20T02:04:59.426Z,17.2
2018-07-20T02:06:01.144Z,17.3
2018-07-20T02:07:02.873Z,17.3
2018-07-20T02:08:04.589Z,17.2
2018-07-20T02:09:06.231Z,17.3
2018-07-20T02:10:07.931Z,17.3
2018-07-20T02:11:09.681Z,17.2
2018-07-20T02:12:11.361Z,17.3
2018-07-20T02:13:13.079Z,17.3
2018-07-20T02:14:14.787Z,17.3
2018-07-20T02:15:16.482Z,17.2
2018-07-20T02:16:18.188Z,17.3
2018-07-20T02:17:19.824Z,17.2
2018-07-20T02:18:21.511Z,17.3
2018-07-20T02:19:23.221Z,17.3
2018-07-20T02:20:24.852Z,17.3
2018-07-20T02:21:26.577Z,17.3
2018-07-20T02:22:28.246Z,17.2
2018-07-20T02:23:29.987Z,17.2
2018-07-20T02:24:31.704Z,17.2
2018-07-20T02:25:33.491Z,17.2
2018-07-20T02:26:35.187Z,17.2
2018-07-20T02:27:36.911Z,17.1
2018-07-20T02:28:38.656Z,17.0
2018-07-20T02:29:40.394Z,17.0
2018-07-20T02:30:42.033Z,17.1
2018-07-20T02:31:43.756Z,17.2
2018-07-20T02:32:45.560Z,17.2
2018-07-20T02:33:47.188Z,17.1
2018-07-20T02:34:48.912Z,17.1
2018-07-20T02:35:50.567Z,17.0
2018-07-20T02:36:52.202Z,17.0
2018-07-20T02:37:53.913Z,17.0
2018-07-20T02:38:55.654Z,17.0
2018-07-20T02:39:57.346Z,16.9
2018-07-20T02:40:59.020Z,17.0
2018-07-20T02:42:00.795Z,16.9
2018-07-20T02:43:02.546Z,17.0
2018-07-20T02:44:04.140Z,16.8
2018-07-20T02:45:05.818Z,16.8
2018-07-20T02:46:07.536Z,16.9
2018-07-20T02:47:09.220Z,17.0
2018-07-20T02:48:10.908Z,17.0
2018-07-20T02:49:12.578Z,16.9
2018-07-20T02:50:14.308Z,16.9
2018-07-20T02:51:16.035Z,16.9
2018-07-20T02:52:17.693Z,16.8
2018-07-20T02:53:19.361Z,16.8
2018-07-20T02:54:21.090Z,16.8
2018-07-20T02:55:22.714Z,16.8
2018-07-20T02:56:24.418Z,16.8
2018-07-20T02:57:26.125Z,16.8
2018-07-20T02:58:27.872Z,16.8
2018-07-20T02:59:29.595Z,16.8
2018-07-20T03:00:31.363Z,16.8
2018-07-20T03:01:33.041Z,16.8
2018-07-20T03:02:34.830Z,16.8
2018-07-20T03:03:36.502Z,16.8
2018-07-20T03:04:38.242Z,16.8
2018-07-20T03:05:39.985Z,16.8
2018-07-20T03:06:41.655Z,16.8
2018-07-20T03:07:43.346Z,16.8
2018-07-20T03:08:44.966Z,16.8
2018-07-20T03:09:46.605Z,16.7
2018-07-20T03:10:48.287Z,16.7
2018-07-20T03:11:49.962Z,16.7
2018-07-20T03:12:51.662Z,16.7
2018-07-20T03:13:53.364Z,16.7
2018-07-20T03:14:55.121Z,16.7
2018-07-20T03:15:56.713Z,16.7
2018-07-20T03:16:58.357Z,16.7
2018-07-20T03:17:59.978Z,16.7
2018-07-20T03:19:01.628Z,16.7
2018-07-20T03:20:03.338Z,16.7
2018-07-20T03:21:05.007Z,16.6
2018-07-20T03:22:06.697Z,16.6
2018-07-20T03:23:08.327Z,16.6
2018-07-20T03:24:09.980Z,16.6
2018-07-20T03:25:11.649Z,16.6
2018-07-20T03:26:13.373Z,16.6
2018-07-20T03:27:15.116Z,16.6
2018-07-20T03:28:16.904Z,16.6
2018-07-20T03:29:18.599Z,16.4
2018-07-20T03:30:20.314Z,16.6
2018-07-20T03:31:22.015Z,16.5
2018-07-20T03:32:23.742Z,16.6
2018-07-20T03:33:25.431Z,16.5
2018-07-20T03:34:27.124Z,16.6
2018-07-20T03:35:28.842Z,16.5
2018-07-20T03:36:30.567Z,16.6
2018-07-20T03:37:32.282Z,16.5
2018-07-20T03:38:33.999Z,16.5
2018-07-20T03:39:35.746Z,16.5
2018-07-20T03:40:37.491Z,16.5
2018-07-20T03:41:39.206Z,16.6
2018-07-20T03:42:40.831Z,16.6
2018-07-20T03:43:42.523Z,16.6
2018-07-20T03:44:44.175Z,16.6
2018-07-20T03:45:45.953Z,16.6
2018-07-20T03:46:47.670Z,16.5
2018-07-20T03:47:49.327Z,16.6
2018-07-20T03:48:51.025Z,16.6
2018-07-20T03:49:52.679Z,16.6
2018-07-20T03:50:54.332Z,16.5
2018-07-20T03:51:56.058Z,16.5
2018-07-20T03:52:57.863Z,16.5
2018-07-20T03:53:59.625Z,16.5
2018-07-20T03:55:01.311Z,16.5
2018-07-20T03:56:03.048Z,16.5
2018-07-20T03:57:04.768Z,16.5
2018-07-20T03:58:06.480Z,16.5
2018-07-20T03:59:08.157Z,16.5
2018-07-20T04:00:09.862Z,16.6
2018-07-20T04:01:11.525Z,16.4
2018-07-20T04:02:13.528Z,16.6
2018-07-20T04:03:15.241Z,16.6
2018-07-20T04:04:16.873Z,16.6
2018-07-20T04:05:18.570Z,16.5
2018-07-20T04:06:20.336Z,16.5
2018-07-20T04:07:22.021Z,16.5
2018-07-20T04:08:23.880Z,16.6
2018-07-20T04:09:25.814Z,16.6
2018-07-20T04:10:27.649Z,16.5
2018-07-20T04:11:29.314Z,16.6
2018-07-20T04:12:31.231Z,16.5
2018-07-20T04:13:32.880Z,16.5
2018-07-20T04:14:34.551Z,16.5
2018-07-20T04:15:36.233Z,16.5
2018-07-20T04:16:37.908Z,16.5
2018-07-20T04:17:39.648Z,16.5
2018-07-20T04:18:41.462Z,16.5
2018-07-20T04:19:43.184Z,16.5
2018-07-20T04:20:45.071Z,16.6
2018-07-20T04:21:46.748Z,16.6
2018-07-20T04:22:48.540Z,16.6
2018-07-20T04:23:50.246Z,16.7
2018-07-20T04:24:51.990Z,16.7
2018-07-20T04:25:53.777Z,16.7
2018-07-20T04:26:56.131Z,16.8
2018-07-20T04:27:57.885Z,16.7
2018-07-20T04:28:59.514Z,16.8
2018-07-20T04:30:01.229Z,16.8
2018-07-20T04:31:02.975Z,16.8
2018-07-20T04:32:04.673Z,16.8
2018-07-20T04:33:06.377Z,17.0
2018-07-20T04:34:08.139Z,16.9
2018-07-20T04:35:09.832Z,17.0
2018-07-20T04:36:11.670Z,16.9
2018-07-20T04:37:13.396Z,17.0
2018-07-20T04:38:15.122Z,17.2
2018-07-20T04:39:16.935Z,17.2
2018-07-20T04:40:18.734Z,17.3
2018-07-20T04:41:20.533Z,17.3
2018-07-20T04:42:22.159Z,17.3
2018-07-20T04:43:23.847Z,17.4
2018-07-20T04:44:26.166Z,17.6
2018-07-20T04:45:27.922Z,17.6
2018-07-20T04:46:29.689Z,17.7
2018-07-20T04:47:31.401Z,17.7
2018-07-20T04:48:33.076Z,17.7
2018-07-20T04:49:34.763Z,17.8
2018-07-20T04:50:36.527Z,18.0
2018-07-20T04:51:38.277Z,18.1
2018-07-20T04:52:40.036Z,18.1
2018-07-20T04:53:41.751Z,18.2
2018-07-20T04:54:43.483Z,18.4
2018-07-20T04:55:45.285Z,18.6
2018-07-20T04:56:47.131Z,18.8
2018-07-20T04:57:48.808Z,18.8
2018-07-20T04:58:50.582Z,19.0
2018-07-20T04:59:52.298Z,19.2
2018-07-20T05:00:54.087Z,19.3
2018-07-20T05:01:55.799Z,19.5
2018-07-20T05:02:57.624Z,19.6
2018-07-20T05:03:59.301Z,19.6
2018-07-20T05:05:00.997Z,19.8
2018-07-20T05:06:02.746Z,19.9
2018-07-20T05:07:04.468Z,20.1
2018-07-20T05:08:06.248Z,20.2
2018-07-20T05:09:07.989Z,20.3
2018-07-20T05:10:09.736Z,20.2
2018-07-20T05:11:11.428Z,20.2
2018-07-20T05:12:13.159Z,20.3
2018-07-20T05:13:14.901Z,20.5
2018-07-20T05:14:16.631Z,20.6
2018-07-20T05:15:18.404Z,20.8
2018-07-20T05:16:20.079Z,20.9
2018-07-20T05:17:21.876Z,21.0
2018-07-20T05:18:23.605Z,21.2
2018-07-20T05:19:25.430Z,21.4
2018-07-20T05:20:27.169Z,21.5
2018-07-20T05:21:28.932Z,21.7
2018-07-20T05:22:30.756Z,21.7
2018-07-20T05:23:32.536Z,21.9
2018-07-20T05:24:34.281Z,22.1
2018-07-20T05:25:36.068Z,22.2
2018-07-20T05:26:37.888Z,22.4
2018-07-20T05:27:39.657Z,22.5
2018-07-20T05:28:41.422Z,22.7
2018-07-20T05:29:43.097Z,22.8
2018-07-20T05:30:44.717Z,23.0
2018-07-20T05:31:46.516Z,23.0
2018-07-20T05:32:48.328Z,22.9
2018-07-20T05:33:50.095Z,23.0
2018-07-20T05:34:51.893Z,23.1
2018-07-20T05:35:53.698Z,23.2
2018-07-20T05:36:55.443Z,23.3
2018-07-20T05:37:57.094Z,23.4
2018-07-20T05:38:58.911Z,23.7
2018-07-20T05:40:00.594Z,23.5
2018-07-20T05:41:02.311Z,23.9
2018-07-20T05:42:04.104Z,23.9
2018-07-20T05:43:05.903Z,24.1
2018-07-20T05:44:07.823Z,24.2
2018-07-20T05:45:09.378Z,24.1
2018-07-20T05:46:11.155Z,24.2
2018-07-20T05:47:12.858Z,24.2
2018-07-20T05:48:14.544Z,24.2
2018-07-20T05:49:16.205Z,24.4
2018-07-20T05:50:17.945Z,24.1
2018-07-20T05:51:19.646Z,24.1
2018-07-20T05:52:21.435Z,24.1
2018-07-20T05:53:23.314Z,24.1
2018-07-20T05:54:24.954Z,24.2
2018-07-20T05:55:26.673Z,24.0
2018-07-20T05:56:28.447Z,24.2
2018-07-20T05:57:30.104Z,24.4
2018-07-20T05:58:31.843Z,24.6
2018-07-20T05:59:33.596Z,24.6
2018-07-20T06:00:35.403Z,24.8
2018-07-20T06:01:37.194Z,24.8
2018-07-20T06:02:38.922Z,24.8
2018-07-20T06:03:40.711Z,24.8
2018-07-20T06:04:42.359Z,24.8
2018-07-20T06:05:44.152Z,24.9
2018-07-20T06:06:45.924Z,25.0
2018-07-20T06:07:47.753Z,25.1
2018-07-20T06:08:49.530Z,25.2
2018-07-20T06:09:51.266Z,25.3
2018-07-20T06:10:52.908Z,25.2
2018-07-20T06:11:54.578Z,25.2
2018-07-20T06:12:56.374Z,25.3
2018-07-20T06:13:58.169Z,25.5
2018-07-20T06:14:59.897Z,25.7
2018-07-20T06:16:01.547Z,25.7
2018-07-20T06:17:03.327Z,25.9
2018-07-20T06:18:05.126Z,26.0
2018-07-20T06:19:06.876Z,26.0
2018-07-20T06:20:08.648Z,26.0
2018-07-20T06:21:10.506Z,26.1
2018-07-20T06:22:12.244Z,26.1
2018-07-20T06:23:14.063Z,26.2
2018-07-20T06:24:15.834Z,26.4
2018-07-20T06:25:17.454Z,26.4
2018-07-20T06:26:19.263Z,26.5
2018-07-20T06:27:20.960Z,26.5
2018-07-20T06:28:22.713Z,26.6
2018-07-20T06:29:24.396Z,26.8
2018-07-20T06:30:26.120Z,26.9
2018-07-20T06:31:27.904Z,27.2
2018-07-20T06:32:29.702Z,27.2
2018-07-20T06:33:31.508Z,27.4
2018-07-20T06:34:33.331Z,27.4
2018-07-20T06:35:35.189Z,27.6
2018-07-20T06:36:37.092Z,27.7
2018-07-20T06:37:38.976Z,27.8
2018-07-20T06:38:40.720Z,27.9
2018-07-20T06:39:42.400Z,28.1
2018-07-20T06:40:44.099Z,28.3
2018-07-20T06:41:45.862Z,28.3
2018-07-20T06:42:47.679Z,28.4
2018-07-20T06:43:49.621Z,28.4
2018-07-20T06:44:51.275Z,28.4
2018-07-20T06:45:52.956Z,28.5
2018-07-20T06:46:54.836Z,28.5
2018-07-20T06:47:56.644Z,28.6
2018-07-20T06:48:58.427Z,28.6
2018-07-20T06:50:00.214Z,28.6
2018-07-20T06:51:02.032Z,28.6
2018-07-20T06:52:03.872Z,28.6
2018-07-20T06:53:05.683Z,28.5
2018-07-20T06:54:07.542Z,28.6
2018-07-20T06:55:09.365Z,28.6
2018-07-20T06:56:11.119Z,28.6
2018-07-20T06:57:12.820Z,28.8
2018-07-20T06:58:14.599Z,28.7
2018-07-20T06:59:16.284Z,28.7
2018-07-20T07:00:18.135Z,28.8
2018-07-20T07:01:19.991Z,28.7
2018-07-20T07:02:21.751Z,28.9
2018-07-20T07:03:23.473Z,29.1
2018-07-20T07:04:25.370Z,29.3
2018-07-20T07:05:27.128Z,29.4
2018-07-20T07:06:28.814Z,29.4
2018-07-20T07:07:30.604Z,29.6
2018-07-20T07:08:32.430Z,29.6
2018-07-20T07:09:34.243Z,29.8
2018-07-20T07:10:35.985Z,29.9
2018-07-20T07:11:37.931Z,29.9
2018-07-20T07:12:39.768Z,30.1
2018-07-20T07:13:41.486Z,30.4
2018-07-20T07:14:43.297Z,30.5
2018-07-20T07:15:45.051Z,30.4
2018-07-20T07:16:46.806Z,30.5
2018-07-20T07:17:48.480Z,30.6
2018-07-20T07:18:50.349Z,30.6
2018-07-20T07:19:52.200Z,30.7
2018-07-20T07:20:54.006Z,30.9
2018-07-20T07:21:55.761Z,31.0
2018-07-20T07:22:57.555Z,31.1
2018-07-20T07:23:59.249Z,31.2
2018-07-20T07:25:01.046Z,31.3
2018-07-20T07:26:02.914Z,31.2
2018-07-20T07:27:04.574Z,31.4
2018-07-20T07:28:06.287Z,31.6
2018-07-20T07:29:08.131Z,31.7
2018-07-20T07:30:09.848Z,31.7
2018-07-20T07:31:11.704Z,31.5
2018-07-20T07:32:13.628Z,31.6
2018-07-20T07:33:15.428Z,31.7
2018-07-20T07:34:17.146Z,31.9
2018-07-20T07:35:18.977Z,32.1
2018-07-20T07:36:20.783Z,32.4
2018-07-20T07:37:22.443Z,32.7
2018-07-20T07:38:24.231Z,32.7
2018-07-20T07:39:26.135Z,32.8
2018-07-20T07:40:28.014Z,32.7
2018-07-20T07:41:29.793Z,32.6
2018-07-20T07:42:31.556Z,32.8
2018-07-20T07:43:33.349Z,32.8
2018-07-20T07:44:35.102Z,32.6
2018-07-20T07:45:36.942Z,32.4
2018-07-20T07:46:38.728Z,32.6
2018-07-20T07:47:40.470Z,32.8
2018-07-20T07:48:42.315Z,32.8
2018-07-20T07:49:44.266Z,32.8
2018-07-20T07:50:45.952Z,32.9
2018-07-20T07:51:47.783Z,32.9
2018-07-20T07:52:49.594Z,33.0
2018-07-20T07:53:51.295Z,33.0
2018-07-20T07:54:53.373Z,33.2
2018-07-20T07:55:54.978Z,33.0
2018-07-20T07:56:56.767Z,33.1
2018-07-20T07:57:58.614Z,33.3
2018-07-20T07:59:00.516Z,33.3
2018-07-20T08:00:02.315Z,33.6
2018-07-20T08:01:04.089Z,33.7
2018-07-20T08:02:05.830Z,33.8
2018-07-20T08:03:07.567Z,34.0
2018-07-20T08:04:09.387Z,33.8
2018-07-20T08:05:11.345Z,33.7
2018-07-20T08:06:13.178Z,33.6
2018-07-20T08:07:15.088Z,33.4
2018-07-20T08:08:16.976Z,33.0
2018-07-20T08:09:18.705Z,33.2
2018-07-20T08:10:20.705Z,33.6
2018-07-20T08:11:22.493Z,33.8
2018-07-20T08:12:24.435Z,33.8
2018-07-20T08:13:26.204Z,33.3
2018-07-20T08:14:27.925Z,33.3
2018-07-20T08:15:29.672Z,33.4
2018-07-20T08:16:31.474Z,33.6
2018-07-20T08:17:33.164Z,33.8
2018-07-20T08:18:34.877Z,33.9
2018-07-20T08:19:36.708Z,33.9
2018-07-20T08:20:38.524Z,34.1
2018-07-20T08:21:40.360Z,34.4
2018-07-20T08:22:42.057Z,34.4
2018-07-20T08:23:43.859Z,34.4
2018-07-20T08:24:45.595Z,34.5
2018-07-20T08:25:47.697Z,34.5
2018-07-20T08:26:49.508Z,34.3
2018-07-20T08:27:51.233Z,34.3
2018-07-20T08:28:53.000Z,34.4
2018-07-20T08:29:54.820Z,34.1
2018-07-20T08:30:56.782Z,34.1
2018-07-20T08:31:58.827Z,34.1
2018-07-20T08:33:00.637Z,34.5
2018-07-20T08:34:02.705Z,34.3
2018-07-20T08:35:04.423Z,34.5
2018-07-20T08:36:06.242Z,34.9
2018-07-20T08:37:07.952Z,34.8
2018-07-20T08:38:09.744Z,35.2
2018-07-20T08:39:11.572Z,35.2
2018-07-20T08:40:13.378Z,35.2
2018-07-20T08:41:15.134Z,35.5
2018-07-20T08:42:17.120Z,35.5
2018-07-20T08:43:18.872Z,35.6
2018-07-20T08:44:20.859Z,35.6
2018-07-20T08:45:22.662Z,35.6
2018-07-20T08:46:24.526Z,35.6
2018-07-20T08:47:26.314Z,35.8
2018-07-20T08:48:28.336Z,35.7
2018-07-20T08:49:30.183Z,35.6
2018-07-20T08:50:31.904Z,35.6
2018-07-20T08:51:33.764Z,35.7
2018-07-20T08:52:35.701Z,35.6
2018-07-20T08:53:37.504Z,35.9
2018-07-20T08:54:39.363Z,35.8
2018-07-20T08:55:41.213Z,35.8
2018-07-20T08:56:43.038Z,35.8
2018-07-20T08:57:45.142Z,35.9
2018-07-20T08:58:46.930Z,35.9
2018-07-20T08:59:48.712Z,35.7
2018-07-20T09:00:50.448Z,35.5
2018-07-20T09:01:52.223Z,35.6
2018-07-20T09:02:54.038Z,35.6
2018-07-20T09:03:56.593Z,35.7
2018-07-20T09:04:58.360Z,36.0
2018-07-20T09:06:00.252Z,36.1
2018-07-20T09:07:02.062Z,36.4
2018-07-20T09:08:03.916Z,36.6
2018-07-20T09:09:05.779Z,36.7
2018-07-20T09:10:07.585Z,36.9
2018-07-20T09:11:09.441Z,37.0
2018-07-20T09:12:11.206Z,37.3
2018-07-20T09:13:13.016Z,37.7
2018-07-20T09:14:14.815Z,37.7
2018-07-20T09:15:16.942Z,37.8
2018-07-20T09:16:18.822Z,37.8
2018-07-20T09:17:20.860Z,37.7
2018-07-20T09:18:22.708Z,37.3
2018-07-20T09:19:24.572Z,37.6
2018-07-20T09:20:26.642Z,37.7
2018-07-20T09:21:28.693Z,37.8
2018-07-20T09:22:30.479Z,37.7
2018-07-20T09:23:32.224Z,37.7
2018-07-20T09:24:33.939Z,37.5
2018-07-20T09:25:35.872Z,37.3
2018-07-20T09:26:37.745Z,36.9
2018-07-20T09:27:39.606Z,37.2
2018-07-20T09:28:41.372Z,37.2
2018-07-20T09:29:43.139Z,37.0
2018-07-20T09:30:44.956Z,37.4
2018-07-20T09:31:46.821Z,37.4
2018-07-20T09:32:48.615Z,37.3
2018-07-20T09:33:50.749Z,37.1
2018-07-20T09:34:52.567Z,36.9
2018-07-20T09:35:54.435Z,37.2
2018-07-20T09:36:56.248Z,37.6
2018-07-20T09:37:58.030Z,37.3
2018-07-20T09:39:00.044Z,37.7
2018-07-20T09:40:01.932Z,37.6
2018-07-20T09:41:03.881Z,37.7
2018-07-20T09:42:05.652Z,37.9
2018-07-20T09:43:07.468Z,37.9
2018-07-20T09:44:09.296Z,38.0
2018-07-20T09:45:11.052Z,38.0
2018-07-20T09:46:12.832Z,38.1
2018-07-20T09:47:14.827Z,38.5
2018-07-20T09:48:16.607Z,38.8
2018-07-20T09:49:18.374Z,39.0
2018-07-20T09:50:20.104Z,38.9
2018-07-20T09:51:22.053Z,38.8
2018-07-20T09:52:24.059Z,38.9
2018-07-20T09:53:26.574Z,39.1
2018-07-20T09:54:28.384Z,39.3
2018-07-20T09:55:30.184Z,39.5
2018-07-20T09:56:31.984Z,39.6
2018-07-20T09:57:33.811Z,39.0
2018-07-20T09:58:35.616Z,39.2
2018-07-20T09:59:37.418Z,39.3
2018-07-20T10:00:39.179Z,39.3
2018-07-20T10:01:40.910Z,39.0
2018-07-20T10:02:42.766Z,39.0
2018-07-20T10:03:44.629Z,39.1
2018-07-20T10:04:46.886Z,39.3
2018-07-20T10:05:48.751Z,39.5
2018-07-20T10:06:50.627Z,39.6
2018-07-20T10:07:52.514Z,39.9
2018-07-20T10:08:54.628Z,39.9
2018-07-20T10:09:56.469Z,40.0
2018-07-20T10:10:58.315Z,39.7
2018-07-20T10:12:01.242Z,39.7
2018-07-20T10:13:02.921Z,39.2
2018-07-20T10:14:04.662Z,38.9
2018-07-20T10:15:06.525Z,39.1
2018-07-20T10:16:08.375Z,39.4
2018-07-20T10:17:10.589Z,39.3
2018-07-20T10:18:12.833Z,39.4
2018-07-20T10:19:14.655Z,39.8
2018-07-20T10:20:16.568Z,39.9
2018-07-20T10:21:18.746Z,39.7
2018-07-20T10:22:20.422Z,39.8
2018-07-20T10:23:22.496Z,40.3
2018-07-20T10:24:24.439Z,40.1
2018-07-20T10:25:26.465Z,40.4
2018-07-20T10:26:28.370Z,40.1
2018-07-20T10:27:30.172Z,40.2
2018-07-20T10:28:32.211Z,40.5
2018-07-20T10:29:34.290Z,40.2
2018-07-20T10:30:36.168Z,40.0
2018-07-20T10:31:37.924Z,40.1
2018-07-20T10:32:39.824Z,40.3
2018-07-20T10:33:41.809Z,40.5
2018-07-20T10:34:43.712Z,40.4
2018-07-20T10:35:45.617Z,40.7
2018-07-20T10:36:47.408Z,40.6
2018-07-20T10:37:49.257Z,40.1
2018-07-20T10:38:51.035Z,39.9
2018-07-20T10:39:52.876Z,40.1
2018-07-20T10:40:54.682Z,39.9
2018-07-20T10:41:56.939Z,39.5
2018-07-20T10:42:58.716Z,39.3
2018-07-20T10:44:00.464Z,39.8
2018-07-20T10:45:01.939Z,39.7
2018-07-20T10:46:03.638Z,39.8
2018-07-20T10:47:05.450Z,39.7
2018-07-20T10:48:07.286Z,39.8
2018-07-20T10:49:09.028Z,39.8
2018-07-20T10:50:10.899Z,40.0
2018-07-20T10:51:12.648Z,39.8
2018-07-20T10:52:14.574Z,39.9
2018-07-20T10:53:16.310Z,40.0
2018-07-20T10:54:18.010Z,39.9
2018-07-20T10:55:19.737Z,40.1
2018-07-20T10:56:21.551Z,40.4
2018-07-20T10:57:23.862Z,40.9
2018-07-20T10:58:25.873Z,40.6
2018-07-20T10:59:27.665Z,40.7
2018-07-20T11:00:29.386Z,39.8
2018-07-20T11:01:31.525Z,39.7
2018-07-20T11:02:33.542Z,39.4
2018-07-20T11:03:35.442Z,39.1
2018-07-20T11:04:37.148Z,39.0
2018-07-20T11:05:39.044Z,39.0
2018-07-20T11:06:40.727Z,39.5
2018-07-20T11:07:42.505Z,39.3
2018-07-20T11:08:44.319Z,39.6
2018-07-20T11:09:46.225Z,39.9
2018-07-20T11:10:47.971Z,40.3
2018-07-20T11:11:50.005Z,40.4
2018-07-20T11:12:51.728Z,40.4
2018-07-20T11:13:53.520Z,40.5
2018-07-20T11:14:55.295Z,40.4
2018-07-20T11:15:57.248Z,40.5
2018-07-20T11:16:59.298Z,40.7
2018-07-20T11:18:01.119Z,41.1
2018-07-20T11:19:02.885Z,41.1
2018-07-20T11:20:04.662Z,41.0
2018-07-20T11:21:06.440Z,40.9
2018-07-20T11:22:08.218Z,40.9
2018-07-20T11:23:09.962Z,40.9
2018-07-20T11:24:11.697Z,40.9
2018-07-20T11:25:14.357Z,41.0
2018-07-20T11:26:16.353Z,40.9
2018-07-20T11:27:18.097Z,40.8
2018-07-20T11:28:20.095Z,40.9
2018-07-20T11:29:21.727Z,41.0
2018-07-20T11:30:23.577Z,41.2
2018-07-20T11:31:25.409Z,41.3
2018-07-20T11:32:27.190Z,40.9
2018-07-20T11:33:29.023Z,40.7
2018-07-20T11:34:30.775Z,40.4
2018-07-20T11:35:32.806Z,40.4
2018-07-20T11:36:34.552Z,40.4
2018-07-20T11:37:36.398Z,40.5
2018-07-20T11:38:38.152Z,40.0
2018-07-20T11:39:39.862Z,40.3
2018-07-20T11:40:42.722Z,40.4
2018-07-20T11:41:44.705Z,40.0
2018-07-20T11:42:46.520Z,39.9
2018-07-20T11:43:48.218Z,40.0
2018-07-20T11:44:49.909Z,40.2
2018-07-20T11:45:51.657Z,40.3
2018-07-20T11:46:53.346Z,40.5
2018-07-20T11:47:55.121Z,40.5
2018-07-20T11:48:57.026Z,41.0
2018-07-20T11:49:58.791Z,41.6
2018-07-20T11:51:00.579Z,41.6
2018-07-20T11:52:02.394Z,41.9
2018-07-20T11:53:04.185Z,41.6
2018-07-20T11:54:05.957Z,41.5
2018-07-20T11:55:07.657Z,41.1
2018-07-20T11:56:09.541Z,41.0
2018-07-20T11:57:11.446Z,40.4
2018-07-20T11:58:13.438Z,40.2
2018-07-20T11:59:15.201Z,39.7
2018-07-20T12:00:17.220Z,39.8
2018-07-20T12:01:18.920Z,40.2
2018-07-20T12:02:20.630Z,40.4
2018-07-20T12:03:22.700Z,40.9
2018-07-20T12:04:24.444Z,41.0
2018-07-20T12:05:26.180Z,40.3
2018-07-20T12:06:28.045Z,40.5
2018-07-20T12:07:29.895Z,40.9
2018-07-20T12:08:31.679Z,41.0
2018-07-20T12:09:33.531Z,41.4
2018-07-20T12:10:35.269Z,41.8
2018-07-20T12:11:37.143Z,42.1
2018-07-20T12:12:38.896Z,42.2
2018-07-20T12:13:40.942Z,42.2
2018-07-20T12:14:42.757Z,42.4
2018-07-20T12:15:44.478Z,42.0
2018-07-20T12:16:46.228Z,42.1
2018-07-20T12:17:47.971Z,42.1
2018-07-20T12:18:49.740Z,42.2
2018-07-20T12:19:51.476Z,42.6
2018-07-20T12:20:53.138Z,42.7
2018-07-20T12:21:54.966Z,42.4
2018-07-20T12:22:56.707Z,41.9
2018-07-20T12:23:58.472Z,41.4
2018-07-20T12:25:00.310Z,40.8
2018-07-20T12:26:03.411Z,40.9
2018-07-20T12:27:05.238Z,41.0
2018-07-20T12:28:07.043Z,41.1
2018-07-20T12:29:08.765Z,41.4
2018-07-20T12:30:10.529Z,41.7
2018-07-20T12:31:12.237Z,41.7
2018-07-20T12:32:13.934Z,41.6
2018-07-20T12:33:15.716Z,41.5
2018-07-20T12:34:17.436Z,41.3
2018-07-20T12:35:19.159Z,41.3
2018-07-20T12:36:20.836Z,41.4
2018-07-20T12:37:22.637Z,41.7
2018-07-20T12:38:24.334Z,42.0
2018-07-20T12:39:26.087Z,42.3
2018-07-20T12:40:27.785Z,42.3
2018-07-20T12:41:29.439Z,42.2
2018-07-20T12:42:31.214Z,42.3
2018-07-20T12:43:32.823Z,42.9
2018-07-20T12:44:34.997Z,42.9
2018-07-20T12:45:37.300Z,43.2
2018-07-20T12:46:39.109Z,43.4
2018-07-20T12:47:40.656Z,43.2
2018-07-20T12:48:42.367Z,43.5
2018-07-20T12:49:44.660Z,43.9
2018-07-20T12:50:46.615Z,44.0
2018-07-20T12:51:48.398Z,43.6
2018-07-20T12:52:50.539Z,42.8
2018-07-20T12:53:52.241Z,41.6
2018-07-20T12:54:53.861Z,41.2
2018-07-20T12:55:55.619Z,41.5
2018-07-20T12:56:57.348Z,41.1
2018-07-20T12:57:59.398Z,40.4
2018-07-20T12:59:01.075Z,39.9
2018-07-20T13:00:02.842Z,39.5
2018-07-20T13:01:04.731Z,39.1
2018-07-20T13:02:06.308Z,38.7
2018-07-20T13:03:08.135Z,38.3
2018-07-20T13:04:09.833Z,37.9
2018-07-20T13:05:11.634Z,38.1
2018-07-20T13:06:13.424Z,38.7
2018-07-20T13:07:15.167Z,38.6
2018-07-20T13:08:17.063Z,38.9
2018-07-20T13:09:18.818Z,39.4
2018-07-20T13:10:20.531Z,39.4
2018-07-20T13:11:22.306Z,39.4
2018-07-20T13:12:24.079Z,39.2
2018-07-20T13:13:25.766Z,38.8
2018-07-20T13:14:27.484Z,38.7
2018-07-20T13:15:29.251Z,38.7
2018-07-20T13:16:30.921Z,38.7
2018-07-20T13:17:32.669Z,38.5
2018-07-20T13:18:34.369Z,37.8
2018-07-20T13:19:36.100Z,37.5
2018-07-20T13:20:37.821Z,37.3
2018-07-20T13:21:39.563Z,37.2
2018-07-20T13:22:41.233Z,37.0
2018-07-20T13:23:42.957Z,37.0
2018-07-20T13:24:44.676Z,36.7
2018-07-20T13:25:46.344Z,36.7
2018-07-20T13:26:48.090Z,37.0
2018-07-20T13:27:49.802Z,37.4
2018-07-20T13:28:51.485Z,37.6
2018-07-20T13:29:53.301Z,38.0
2018-07-20T13:30:55.109Z,38.3
2018-07-20T13:31:56.888Z,38.6
2018-07-20T13:32:58.552Z,38.7
2018-07-20T13:34:00.278Z,39.1
2018-07-20T13:35:02.067Z,39.2
2018-07-20T13:36:03.698Z,39.3
2018-07-20T13:37:05.381Z,38.9
2018-07-20T13:38:07.377Z,38.8
2018-07-20T13:39:09.081Z,38.8
2018-07-20T13:40:11.018Z,38.9
2018-07-20T13:41:12.701Z,39.0
2018-07-20T13:42:14.425Z,38.9